sensor_id;sensor_type;location;lat;lon;timestamp;P1;durP1;ratioP1;P2;durP2;ratioP2
41572;SDS011;27286;47.870;19.006;2022-07-06T00:01:47;1.45;;;0.70;;
41572;SDS011;27286;47.870;19.006;2022-07-06T00:04:13;1.17;;;0.70;;
41572;SDS011;27286;47.870;19.006;2022-07-06T00:06:38;0.90;;;0.50;;
41572;SDS011;27286;47.870;19.006;2022-07-06T00:09:04;0.88;;;0.60;;
41572;SDS011;27286;47.870;19.006;2022-07-06T00:11:30;2.28;;;0.70;;
41572;SDS011;27286;47.870;19.006;2022-07-06T00:13:56;3.53;;;0.55;;
41572;SDS011;27286;47.870;19.006;2022-07-06T00:16:21;1.98;;;0.63;;
41572;SDS011;27286;47.870;19.006;2022-07-06T00:18:47;1.33;;;0.60;;
41572;SDS011;27286;47.870;19.006;2022-07-06T00:21:13;4.40;;;0.93;;
41572;SDS011;27286;47.870;19.006;2022-07-06T00:23:38;1.15;;;0.52;;
41572;SDS011;27286;47.870;19.006;2022-07-06T00:26:04;2.63;;;0.60;;
41572;SDS011;27286;47.870;19.006;2022-07-06T00:28:29;0.68;;;0.35;;
41572;SDS011;27286;47.870;19.006;2022-07-06T00:30:55;1.05;;;0.40;;
41572;SDS011;27286;47.870;19.006;2022-07-06T00:33:21;1.10;;;0.40;;
41572;SDS011;27286;47.870;19.006;2022-07-06T00:35:46;2.45;;;0.40;;
41572;SDS011;27286;47.870;19.006;2022-07-06T00:38:12;0.50;;;0.30;;
41572;SDS011;27286;47.870;19.006;2022-07-06T00:40:38;0.75;;;0.40;;
41572;SDS011;27286;47.870;19.006;2022-07-06T00:43:03;0.80;;;0.30;;
41572;SDS011;27286;47.870;19.006;2022-07-06T00:45:29;1.63;;;0.50;;
41572;SDS011;27286;47.870;19.006;2022-07-06T00:47:54;1.85;;;0.52;;
41572;SDS011;27286;47.870;19.006;2022-07-06T00:50:20;3.15;;;0.50;;
41572;SDS011;27286;47.870;19.006;2022-07-06T00:52:54;0.75;;;0.30;;
41572;SDS011;27286;47.870;19.006;2022-07-06T00:55:22;0.60;;;0.30;;
41572;SDS011;27286;47.870;19.006;2022-07-06T00:57:49;2.03;;;0.50;;
41572;SDS011;27286;47.870;19.006;2022-07-06T01:00:17;2.60;;;0.70;;
41572;SDS011;27286;47.870;19.006;2022-07-06T01:02:44;1.10;;;0.50;;
41572;SDS011;27286;47.870;19.006;2022-07-06T01:05:10;1.10;;;0.50;;
41572;SDS011;27286;47.870;19.006;2022-07-06T01:07:38;1.42;;;0.60;;
41572;SDS011;27286;47.870;19.006;2022-07-06T01:10:05;1.27;;;0.50;;
41572;SDS011;27286;47.870;19.006;2022-07-06T01:12:33;0.70;;;0.30;;
41572;SDS011;27286;47.870;19.006;2022-07-06T01:15:00;1.05;;;0.45;;
41572;SDS011;27286;47.870;19.006;2022-07-06T01:17:25;2.53;;;0.52;;
41572;SDS011;27286;47.870;19.006;2022-07-06T01:19:51;1.83;;;0.40;;
41572;SDS011;27286;47.870;19.006;2022-07-06T01:22:16;1.95;;;0.45;;
41572;SDS011;27286;47.870;19.006;2022-07-06T01:24:42;0.82;;;0.50;;
41572;SDS011;27286;47.870;19.006;2022-07-06T01:27:07;2.83;;;0.47;;
41572;SDS011;27286;47.870;19.006;2022-07-06T01:29:33;1.90;;;0.40;;
41572;SDS011;27286;47.870;19.006;2022-07-06T01:31:59;3.47;;;0.93;;
41572;SDS011;27286;47.870;19.006;2022-07-06T01:34:25;0.85;;;0.32;;
41572;SDS011;27286;47.870;19.006;2022-07-06T01:36:51;0.70;;;0.40;;
41572;SDS011;27286;47.870;19.006;2022-07-06T01:39:16;2.75;;;0.40;;
41572;SDS011;27286;47.870;19.006;2022-07-06T01:41:42;0.80;;;0.30;;
41572;SDS011;27286;47.870;19.006;2022-07-06T01:44:07;0.80;;;0.30;;
41572;SDS011;27286;47.870;19.006;2022-07-06T01:46:33;1.65;;;0.60;;
41572;SDS011;27286;47.870;19.006;2022-07-06T01:48:58;2.65;;;0.70;;
41572;SDS011;27286;47.870;19.006;2022-07-06T01:51:24;1.08;;;0.55;;
41572;SDS011;27286;47.870;19.006;2022-07-06T01:53:50;1.58;;;0.52;;
41572;SDS011;27286;47.870;19.006;2022-07-06T01:56:16;0.82;;;0.40;;
41572;SDS011;27286;47.870;19.006;2022-07-06T01:58:45;3.47;;;0.93;;
41572;SDS011;27286;47.870;19.006;2022-07-06T02:01:12;0.82;;;0.40;;
41572;SDS011;27286;47.870;19.006;2022-07-06T02:03:39;1.10;;;0.52;;
41572;SDS011;27286;47.870;19.006;2022-07-06T02:06:05;1.10;;;0.52;;
41572;SDS011;27286;47.870;19.006;2022-07-06T02:08:31;1.25;;;0.70;;
41572;SDS011;27286;47.870;19.006;2022-07-06T02:10:57;1.10;;;0.50;;
41572;SDS011;27286;47.870;19.006;2022-07-06T02:13:23;0.73;;;0.40;;
41572;SDS011;27286;47.870;19.006;2022-07-06T02:15:49;2.92;;;0.70;;
41572;SDS011;27286;47.870;19.006;2022-07-06T02:18:15;5.10;;;0.50;;
41572;SDS011;27286;47.870;19.006;2022-07-06T02:20:40;0.85;;;0.47;;
41572;SDS011;27286;47.870;19.006;2022-07-06T02:23:05;0.70;;;0.40;;
41572;SDS011;27286;47.870;19.006;2022-07-06T02:25:31;1.10;;;0.60;;
41572;SDS011;27286;47.870;19.006;2022-07-06T02:27:56;1.17;;;0.60;;
41572;SDS011;27286;47.870;19.006;2022-07-06T02:30:22;2.35;;;0.77;;
41572;SDS011;27286;47.870;19.006;2022-07-06T02:32:47;1.30;;;0.70;;
41572;SDS011;27286;47.870;19.006;2022-07-06T02:35:13;1.70;;;0.60;;
41572;SDS011;27286;47.870;19.006;2022-07-06T02:37:38;2.65;;;0.85;;
41572;SDS011;27286;47.870;19.006;2022-07-06T02:40:04;0.90;;;0.50;;
41572;SDS011;27286;47.870;19.006;2022-07-06T02:42:30;1.30;;;0.43;;
41572;SDS011;27286;47.870;19.006;2022-07-06T02:44:55;0.88;;;0.50;;
41572;SDS011;27286;47.870;19.006;2022-07-06T02:47:21;1.60;;;0.47;;
41572;SDS011;27286;47.870;19.006;2022-07-06T02:49:46;0.88;;;0.43;;
41572;SDS011;27286;47.870;19.006;2022-07-06T02:52:12;1.88;;;0.65;;
41572;SDS011;27286;47.870;19.006;2022-07-06T02:54:37;0.82;;;0.40;;
41572;SDS011;27286;47.870;19.006;2022-07-06T02:57:03;0.80;;;0.50;;
41572;SDS011;27286;47.870;19.006;2022-07-06T02:59:28;0.47;;;0.20;;
41572;SDS011;27286;47.870;19.006;2022-07-06T03:01:54;1.27;;;0.65;;
41572;SDS011;27286;47.870;19.006;2022-07-06T03:04:19;0.80;;;0.38;;
41572;SDS011;27286;47.870;19.006;2022-07-06T03:06:45;1.33;;;0.52;;
41572;SDS011;27286;47.870;19.006;2022-07-06T03:09:10;1.80;;;0.40;;
41572;SDS011;27286;47.870;19.006;2022-07-06T03:11:36;2.60;;;0.50;;
41572;SDS011;27286;47.870;19.006;2022-07-06T03:14:05;1.25;;;0.50;;
41572;SDS011;27286;47.870;19.006;2022-07-06T03:16:31;1.63;;;0.75;;
41572;SDS011;27286;47.870;19.006;2022-07-06T03:18:57;2.25;;;0.50;;
41572;SDS011;27286;47.870;19.006;2022-07-06T03:21:25;0.98;;;0.40;;
41572;SDS011;27286;47.870;19.006;2022-07-06T03:23:51;1.35;;;0.73;;
41572;SDS011;27286;47.870;19.006;2022-07-06T03:26:16;3.10;;;0.80;;
41572;SDS011;27286;47.870;19.006;2022-07-06T03:28:42;1.40;;;0.70;;
41572;SDS011;27286;47.870;19.006;2022-07-06T03:31:07;1.00;;;0.60;;
41572;SDS011;27286;47.870;19.006;2022-07-06T03:33:33;3.10;;;0.47;;
41572;SDS011;27286;47.870;19.006;2022-07-06T03:35:58;0.77;;;0.40;;
41572;SDS011;27286;47.870;19.006;2022-07-06T03:38:24;1.45;;;0.47;;
41572;SDS011;27286;47.870;19.006;2022-07-06T03:40:49;1.00;;;0.60;;
41572;SDS011;27286;47.870;19.006;2022-07-06T03:43:15;1.65;;;0.70;;
41572;SDS011;27286;47.870;19.006;2022-07-06T03:45:40;1.55;;;0.75;;
41572;SDS011;27286;47.870;19.006;2022-07-06T03:48:06;4.85;;;1.38;;
41572;SDS011;27286;47.870;19.006;2022-07-06T03:50:31;1.35;;;0.70;;
41572;SDS011;27286;47.870;19.006;2022-07-06T03:52:57;2.03;;;0.95;;
41572;SDS011;27286;47.870;19.006;2022-07-06T03:55:22;2.13;;;0.88;;
41572;SDS011;27286;47.870;19.006;2022-07-06T03:57:48;2.40;;;1.30;;
41572;SDS011;27286;47.870;19.006;2022-07-06T04:00:14;1.20;;;0.60;;
41572;SDS011;27286;47.870;19.006;2022-07-06T04:02:39;2.05;;;0.70;;
41572;SDS011;27286;47.870;19.006;2022-07-06T04:05:05;4.07;;;0.65;;
41572;SDS011;27286;47.870;19.006;2022-07-06T04:07:31;1.75;;;1.33;;
41572;SDS011;27286;47.870;19.006;2022-07-06T04:09:56;3.13;;;1.30;;
41572;SDS011;27286;47.870;19.006;2022-07-06T04:12:21;3.00;;;1.55;;
41572;SDS011;27286;47.870;19.006;2022-07-06T04:14:47;2.05;;;1.40;;
41572;SDS011;27286;47.870;19.006;2022-07-06T04:17:12;3.08;;;1.88;;
41572;SDS011;27286;47.870;19.006;2022-07-06T04:19:56;3.25;;;1.77;;
41572;SDS011;27286;47.870;19.006;2022-07-06T04:22:21;3.67;;;1.60;;
41572;SDS011;27286;47.870;19.006;2022-07-06T04:24:47;2.10;;;1.48;;
41572;SDS011;27286;47.870;19.006;2022-07-06T04:27:12;1.92;;;1.33;;
41572;SDS011;27286;47.870;19.006;2022-07-06T04:29:38;2.50;;;1.65;;
41572;SDS011;27286;47.870;19.006;2022-07-06T04:32:03;2.10;;;1.30;;
41572;SDS011;27286;47.870;19.006;2022-07-06T04:34:29;1.83;;;1.30;;
41572;SDS011;27286;47.870;19.006;2022-07-06T04:36:54;2.35;;;1.20;;
41572;SDS011;27286;47.870;19.006;2022-07-06T04:39:20;2.25;;;1.20;;
41572;SDS011;27286;47.870;19.006;2022-07-06T04:41:45;3.80;;;1.40;;
41572;SDS011;27286;47.870;19.006;2022-07-06T04:44:10;2.58;;;1.38;;
41572;SDS011;27286;47.870;19.006;2022-07-06T04:46:36;2.33;;;1.38;;
41572;SDS011;27286;47.870;19.006;2022-07-06T04:49:01;2.10;;;1.20;;
41572;SDS011;27286;47.870;19.006;2022-07-06T04:51:27;2.88;;;1.55;;
41572;SDS011;27286;47.870;19.006;2022-07-06T04:53:52;2.80;;;1.55;;
41572;SDS011;27286;47.870;19.006;2022-07-06T04:56:17;2.63;;;1.52;;
41572;SDS011;27286;47.870;19.006;2022-07-06T04:58:43;7.93;;;1.48;;
41572;SDS011;27286;47.870;19.006;2022-07-06T05:01:08;2.00;;;1.45;;
41572;SDS011;27286;47.870;19.006;2022-07-06T05:03:34;2.05;;;1.73;;
41572;SDS011;27286;47.870;19.006;2022-07-06T05:06:04;5.32;;;1.88;;
41572;SDS011;27286;47.870;19.006;2022-07-06T05:08:30;2.25;;;1.63;;
41572;SDS011;27286;47.870;19.006;2022-07-06T05:10:56;4.22;;;1.35;;
41572;SDS011;27286;47.870;19.006;2022-07-06T05:13:21;2.10;;;1.45;;
41572;SDS011;27286;47.870;19.006;2022-07-06T05:15:47;1.75;;;1.02;;
41572;SDS011;27286;47.870;19.006;2022-07-06T05:18:12;2.55;;;1.55;;
41572;SDS011;27286;47.870;19.006;2022-07-06T05:20:38;3.65;;;1.45;;
41572;SDS011;27286;47.870;19.006;2022-07-06T05:23:03;2.55;;;1.55;;
41572;SDS011;27286;47.870;19.006;2022-07-06T05:25:28;1.70;;;0.90;;
41572;SDS011;27286;47.870;19.006;2022-07-06T05:27:55;1.00;;;0.60;;
41572;SDS011;27286;47.870;19.006;2022-07-06T05:30:20;1.70;;;1.20;;
41572;SDS011;27286;47.870;19.006;2022-07-06T05:32:45;4.25;;;1.17;;
41572;SDS011;27286;47.870;19.006;2022-07-06T05:35:12;1.60;;;1.00;;
41572;SDS011;27286;47.870;19.006;2022-07-06T05:37:38;2.30;;;1.23;;
41572;SDS011;27286;47.870;19.006;2022-07-06T05:40:03;4.95;;;1.55;;
41572;SDS011;27286;47.870;19.006;2022-07-06T05:42:29;2.58;;;1.35;;
41572;SDS011;27286;47.870;19.006;2022-07-06T05:44:55;5.75;;;1.38;;
41572;SDS011;27286;47.870;19.006;2022-07-06T05:47:21;1.98;;;1.10;;
41572;SDS011;27286;47.870;19.006;2022-07-06T05:50:05;2.72;;;1.35;;
41572;SDS011;27286;47.870;19.006;2022-07-06T05:52:41;4.53;;;1.33;;
41572;SDS011;27286;47.870;19.006;2022-07-06T05:55:11;4.07;;;1.10;;
41572;SDS011;27286;47.870;19.006;2022-07-06T05:57:40;6.95;;;1.15;;
41572;SDS011;27286;47.870;19.006;2022-07-06T06:00:06;1.88;;;0.90;;
41572;SDS011;27286;47.870;19.006;2022-07-06T06:02:36;1.15;;;0.60;;
41572;SDS011;27286;47.870;19.006;2022-07-06T06:05:05;3.80;;;0.63;;
41572;SDS011;27286;47.870;19.006;2022-07-06T06:07:33;1.13;;;0.47;;
41572;SDS011;27286;47.870;19.006;2022-07-06T06:10:00;1.55;;;1.17;;
41572;SDS011;27286;47.870;19.006;2022-07-06T06:12:26;1.90;;;0.90;;
41572;SDS011;27286;47.870;19.006;2022-07-06T06:14:51;1.88;;;0.90;;
41572;SDS011;27286;47.870;19.006;2022-07-06T06:17:16;2.50;;;0.90;;
41572;SDS011;27286;47.870;19.006;2022-07-06T06:19:42;1.70;;;0.65;;
41572;SDS011;27286;47.870;19.006;2022-07-06T06:22:07;1.98;;;0.98;;
41572;SDS011;27286;47.870;19.006;2022-07-06T06:24:33;1.52;;;0.60;;
41572;SDS011;27286;47.870;19.006;2022-07-06T06:26:58;1.13;;;0.60;;
41572;SDS011;27286;47.870;19.006;2022-07-06T06:29:26;2.47;;;0.80;;
41572;SDS011;27286;47.870;19.006;2022-07-06T06:31:52;1.52;;;0.73;;
41572;SDS011;27286;47.870;19.006;2022-07-06T06:34:17;1.33;;;0.68;;
41572;SDS011;27286;47.870;19.006;2022-07-06T06:36:42;1.10;;;0.47;;
41572;SDS011;27286;47.870;19.006;2022-07-06T06:39:08;1.45;;;0.60;;
41572;SDS011;27286;47.870;19.006;2022-07-06T06:41:33;1.25;;;0.50;;
41572;SDS011;27286;47.870;19.006;2022-07-06T06:43:59;2.35;;;0.60;;
41572;SDS011;27286;47.870;19.006;2022-07-06T06:46:24;1.55;;;0.60;;
41572;SDS011;27286;47.870;19.006;2022-07-06T06:48:49;1.52;;;0.60;;
41572;SDS011;27286;47.870;19.006;2022-07-06T06:51:15;1.33;;;0.80;;
41572;SDS011;27286;47.870;19.006;2022-07-06T06:53:40;2.03;;;0.40;;
41572;SDS011;27286;47.870;19.006;2022-07-06T06:56:06;2.47;;;0.70;;
41572;SDS011;27286;47.870;19.006;2022-07-06T06:58:31;2.40;;;0.50;;
41572;SDS011;27286;47.870;19.006;2022-07-06T07:00:57;1.10;;;0.50;;
41572;SDS011;27286;47.870;19.006;2022-07-06T07:03:22;7.00;;;0.60;;
41572;SDS011;27286;47.870;19.006;2022-07-06T07:05:48;3.35;;;0.60;;
41572;SDS011;27286;47.870;19.006;2022-07-06T07:08:14;1.10;;;0.47;;
41572;SDS011;27286;47.870;19.006;2022-07-06T07:10:39;4.72;;;0.60;;
41572;SDS011;27286;47.870;19.006;2022-07-06T07:13:04;0.80;;;0.43;;
41572;SDS011;27286;47.870;19.006;2022-07-06T07:15:30;1.67;;;0.60;;
41572;SDS011;27286;47.870;19.006;2022-07-06T07:17:55;2.13;;;0.55;;
41572;SDS011;27286;47.870;19.006;2022-07-06T07:20:21;1.00;;;0.55;;
41572;SDS011;27286;47.870;19.006;2022-07-06T07:22:47;2.88;;;0.70;;
41572;SDS011;27286;47.870;19.006;2022-07-06T07:25:12;2.10;;;0.50;;
41572;SDS011;27286;47.870;19.006;2022-07-06T07:27:38;3.35;;;0.55;;
41572;SDS011;27286;47.870;19.006;2022-07-06T07:30:03;0.88;;;0.40;;
41572;SDS011;27286;47.870;19.006;2022-07-06T07:32:29;1.08;;;0.47;;
41572;SDS011;27286;47.870;19.006;2022-07-06T07:34:55;0.52;;;0.20;;
41572;SDS011;27286;47.870;19.006;2022-07-06T07:37:20;1.98;;;0.50;;
41572;SDS011;27286;47.870;19.006;2022-07-06T07:39:46;1.90;;;0.70;;
41572;SDS011;27286;47.870;19.006;2022-07-06T07:42:11;0.70;;;0.40;;
41572;SDS011;27286;47.870;19.006;2022-07-06T07:44:36;1.52;;;0.40;;
41572;SDS011;27286;47.870;19.006;2022-07-06T07:47:03;0.63;;;0.30;;
41572;SDS011;27286;47.870;19.006;2022-07-06T07:49:29;0.90;;;0.40;;
41572;SDS011;27286;47.870;19.006;2022-07-06T07:51:55;2.08;;;0.40;;
41572;SDS011;27286;47.870;19.006;2022-07-06T07:54:20;1.02;;;0.50;;
41572;SDS011;27286;47.870;19.006;2022-07-06T07:56:45;0.70;;;0.50;;
41572;SDS011;27286;47.870;19.006;2022-07-06T07:59:11;1.85;;;1.25;;
41572;SDS011;27286;47.870;19.006;2022-07-06T08:01:36;0.60;;;0.40;;
41572;SDS011;27286;47.870;19.006;2022-07-06T08:04:02;0.82;;;0.43;;
41572;SDS011;27286;47.870;19.006;2022-07-06T08:06:28;1.77;;;0.50;;
41572;SDS011;27286;47.870;19.006;2022-07-06T08:08:53;0.75;;;0.40;;
41572;SDS011;27286;47.870;19.006;2022-07-06T08:11:18;1.67;;;0.50;;
41572;SDS011;27286;47.870;19.006;2022-07-06T08:13:44;0.80;;;0.50;;
41572;SDS011;27286;47.870;19.006;2022-07-06T08:16:09;4.10;;;0.90;;
41572;SDS011;27286;47.870;19.006;2022-07-06T08:18:36;1.83;;;0.65;;
41572;SDS011;27286;47.870;19.006;2022-07-06T08:21:02;1.50;;;0.70;;
41572;SDS011;27286;47.870;19.006;2022-07-06T08:23:28;2.63;;;1.45;;
41572;SDS011;27286;47.870;19.006;2022-07-06T08:25:54;3.53;;;1.05;;
41572;SDS011;27286;47.870;19.006;2022-07-06T08:28:19;2.40;;;1.10;;
41572;SDS011;27286;47.870;19.006;2022-07-06T08:30:45;2.72;;;1.23;;
41572;SDS011;27286;47.870;19.006;2022-07-06T08:33:10;4.93;;;1.38;;
41572;SDS011;27286;47.870;19.006;2022-07-06T08:35:35;2.40;;;1.35;;
41572;SDS011;27286;47.870;19.006;2022-07-06T08:38:01;2.28;;;1.08;;
41572;SDS011;27286;47.870;19.006;2022-07-06T08:40:30;3.00;;;0.98;;
41572;SDS011;27286;47.870;19.006;2022-07-06T08:42:59;5.40;;;2.30;;
41572;SDS011;27286;47.870;19.006;2022-07-06T08:45:25;2.15;;;1.02;;
41572;SDS011;27286;47.870;19.006;2022-07-06T08:47:51;4.20;;;1.70;;
41572;SDS011;27286;47.870;19.006;2022-07-06T08:50:19;4.35;;;1.25;;
41572;SDS011;27286;47.870;19.006;2022-07-06T08:52:45;1.83;;;1.17;;
41572;SDS011;27286;47.870;19.006;2022-07-06T08:55:12;2.13;;;1.30;;
41572;SDS011;27286;47.870;19.006;2022-07-06T08:57:38;6.03;;;1.50;;
41572;SDS011;27286;47.870;19.006;2022-07-06T09:00:07;1.42;;;0.93;;
41572;SDS011;27286;47.870;19.006;2022-07-06T09:02:33;2.30;;;1.23;;
41572;SDS011;27286;47.870;19.006;2022-07-06T09:05:00;2.08;;;1.00;;
41572;SDS011;27286;47.870;19.006;2022-07-06T09:07:28;2.75;;;1.25;;
41572;SDS011;27286;47.870;19.006;2022-07-06T09:09:54;4.55;;;1.23;;
41572;SDS011;27286;47.870;19.006;2022-07-06T09:12:21;2.50;;;1.35;;
41572;SDS011;27286;47.870;19.006;2022-07-06T09:14:46;1.40;;;0.70;;
41572;SDS011;27286;47.870;19.006;2022-07-06T09:17:12;1.33;;;0.82;;
41572;SDS011;27286;47.870;19.006;2022-07-06T09:19:37;2.30;;;1.17;;
41572;SDS011;27286;47.870;19.006;2022-07-06T09:22:03;1.75;;;1.00;;
41572;SDS011;27286;47.870;19.006;2022-07-06T09:24:29;2.50;;;1.42;;
41572;SDS011;27286;47.870;19.006;2022-07-06T09:26:57;1.80;;;1.02;;
41572;SDS011;27286;47.870;19.006;2022-07-06T09:29:30;1.77;;;0.80;;
41572;SDS011;27286;47.870;19.006;2022-07-06T09:31:57;1.85;;;0.70;;
41572;SDS011;27286;47.870;19.006;2022-07-06T09:34:24;2.03;;;1.00;;
41572;SDS011;27286;47.870;19.006;2022-07-06T09:36:49;3.10;;;1.02;;
41572;SDS011;27286;47.870;19.006;2022-07-06T09:39:25;1.65;;;0.98;;
41572;SDS011;27286;47.870;19.006;2022-07-06T09:41:58;4.55;;;0.90;;
41572;SDS011;27286;47.870;19.006;2022-07-06T09:44:26;1.52;;;0.93;;
41572;SDS011;27286;47.870;19.006;2022-07-06T09:46:56;5.03;;;1.05;;
41572;SDS011;27286;47.870;19.006;2022-07-06T09:49:24;2.42;;;1.35;;
41572;SDS011;27286;47.870;19.006;2022-07-06T09:51:51;3.10;;;1.13;;
41572;SDS011;27286;47.870;19.006;2022-07-06T09:54:18;5.03;;;1.05;;
41572;SDS011;27286;47.870;19.006;2022-07-06T09:56:44;2.00;;;1.10;;
41572;SDS011;27286;47.870;19.006;2022-07-06T09:59:16;3.53;;;0.90;;
41572;SDS011;27286;47.870;19.006;2022-07-06T10:01:43;1.98;;;1.25;;
41572;SDS011;27286;47.870;19.006;2022-07-06T10:04:10;2.95;;;0.98;;
41572;SDS011;27286;47.870;19.006;2022-07-06T10:06:40;1.60;;;0.95;;
41572;SDS011;27286;47.870;19.006;2022-07-06T10:09:07;1.85;;;0.73;;
41572;SDS011;27286;47.870;19.006;2022-07-06T10:11:36;1.48;;;0.63;;
41572;SDS011;27286;47.870;19.006;2022-07-06T10:14:03;1.65;;;0.60;;
41572;SDS011;27286;47.870;19.006;2022-07-06T10:16:30;1.10;;;0.50;;
41572;SDS011;27286;47.870;19.006;2022-07-06T10:18:56;3.00;;;0.98;;
41572;SDS011;27286;47.870;19.006;2022-07-06T10:21:23;1.75;;;0.55;;
41572;SDS011;27286;47.870;19.006;2022-07-06T10:23:49;1.10;;;0.50;;
41572;SDS011;27286;47.870;19.006;2022-07-06T10:26:16;1.85;;;0.60;;
41572;SDS011;27286;47.870;19.006;2022-07-06T10:28:43;1.38;;;0.43;;
41572;SDS011;27286;47.870;19.006;2022-07-06T10:31:09;1.35;;;0.47;;
41572;SDS011;27286;47.870;19.006;2022-07-06T10:33:35;1.77;;;0.80;;
41572;SDS011;27286;47.870;19.006;2022-07-06T10:36:02;1.58;;;0.30;;
41572;SDS011;27286;47.870;19.006;2022-07-06T10:38:33;2.03;;;0.80;;
41572;SDS011;27286;47.870;19.006;2022-07-06T10:41:06;0.90;;;0.45;;
41572;SDS011;27286;47.870;19.006;2022-07-06T10:46:07;7.63;;;0.80;;
41572;SDS011;27286;47.870;19.006;2022-07-06T10:48:34;1.20;;;0.57;;
41572;SDS011;27286;47.870;19.006;2022-07-06T10:51:00;1.00;;;0.50;;
41572;SDS011;27286;47.870;19.006;2022-07-06T10:53:29;2.33;;;0.38;;
41572;SDS011;27286;47.870;19.006;2022-07-06T10:55:58;0.90;;;0.50;;
41572;SDS011;27286;47.870;19.006;2022-07-06T11:01:01;1.38;;;0.60;;
41572;SDS011;27286;47.870;19.006;2022-07-06T11:03:47;1.98;;;0.73;;
41572;SDS011;27286;47.870;19.006;2022-07-06T11:08:55;1.20;;;0.50;;
41572;SDS011;27286;47.870;19.006;2022-07-06T11:11:25;1.33;;;0.60;;
41572;SDS011;27286;47.870;19.006;2022-07-06T11:14:05;2.75;;;0.60;;
41572;SDS011;27286;47.870;19.006;2022-07-06T11:16:33;3.00;;;0.60;;
41572;SDS011;27286;47.870;19.006;2022-07-06T11:19:03;1.25;;;0.50;;
41572;SDS011;27286;47.870;19.006;2022-07-06T11:21:49;1.63;;;0.75;;
41572;SDS011;27286;47.870;19.006;2022-07-06T11:26:50;0.95;;;0.50;;
41572;SDS011;27286;47.870;19.006;2022-07-06T11:29:17;3.08;;;0.70;;
41572;SDS011;27286;47.870;19.006;2022-07-06T11:31:46;1.33;;;0.68;;
41572;SDS011;27286;47.870;19.006;2022-07-06T11:34:19;1.00;;;0.40;;
41572;SDS011;27286;47.870;19.006;2022-07-06T11:36:49;1.00;;;0.60;;
41572;SDS011;27286;47.870;19.006;2022-07-06T11:39:20;2.03;;;0.77;;
41572;SDS011;27286;47.870;19.006;2022-07-06T11:41:46;1.73;;;0.80;;
41572;SDS011;27286;47.870;19.006;2022-07-06T11:44:11;1.95;;;0.90;;
41572;SDS011;27286;47.870;19.006;2022-07-06T11:46:36;1.38;;;0.60;;
41572;SDS011;27286;47.870;19.006;2022-07-06T11:49:06;1.73;;;0.60;;
41572;SDS011;27286;47.870;19.006;2022-07-06T11:51:34;1.75;;;0.60;;
41572;SDS011;27286;47.870;19.006;2022-07-06T11:54:02;1.35;;;0.68;;
41572;SDS011;27286;47.870;19.006;2022-07-06T11:56:36;1.50;;;0.80;;
41572;SDS011;27286;47.870;19.006;2022-07-06T11:59:02;1.58;;;0.63;;
41572;SDS011;27286;47.870;19.006;2022-07-06T12:01:28;2.40;;;0.80;;
41572;SDS011;27286;47.870;19.006;2022-07-06T12:04:00;1.80;;;0.95;;
41572;SDS011;27286;47.870;19.006;2022-07-06T12:06:30;2.22;;;0.85;;
41572;SDS011;27286;47.870;19.006;2022-07-06T12:08:59;1.10;;;0.63;;
41572;SDS011;27286;47.870;19.006;2022-07-06T12:11:30;3.20;;;1.13;;
41572;SDS011;27286;47.870;19.006;2022-07-06T12:13:57;5.78;;;1.65;;
41572;SDS011;27286;47.870;19.006;2022-07-06T12:16:31;2.95;;;1.25;;
41572;SDS011;27286;47.870;19.006;2022-07-06T12:18:59;1.77;;;1.00;;
41572;SDS011;27286;47.870;19.006;2022-07-06T12:21:25;1.58;;;0.80;;
41572;SDS011;27286;47.870;19.006;2022-07-06T12:23:52;2.53;;;1.15;;
41572;SDS011;27286;47.870;19.006;2022-07-06T12:26:19;1.83;;;1.05;;
41572;SDS011;27286;47.870;19.006;2022-07-06T12:28:58;1.63;;;0.93;;
41572;SDS011;27286;47.870;19.006;2022-07-06T12:31:53;2.45;;;1.30;;
41572;SDS011;27286;47.870;19.006;2022-07-06T12:34:21;3.97;;;1.05;;
41572;SDS011;27286;47.870;19.006;2022-07-06T12:39:19;2.13;;;0.90;;
41572;SDS011;27286;47.870;19.006;2022-07-06T12:44:25;2.85;;;1.10;;
41572;SDS011;27286;47.870;19.006;2022-07-06T12:47:05;4.45;;;1.55;;
41572;SDS011;27286;47.870;19.006;2022-07-06T12:49:32;2.10;;;1.08;;
41572;SDS011;27286;47.870;19.006;2022-07-06T12:51:59;2.67;;;1.30;;
41572;SDS011;27286;47.870;19.006;2022-07-06T12:54:33;2.15;;;0.93;;
41572;SDS011;27286;47.870;19.006;2022-07-06T12:59:26;1.77;;;1.40;;
41572;SDS011;27286;47.870;19.006;2022-07-06T13:01:52;4.50;;;1.70;;
41572;SDS011;27286;47.870;19.006;2022-07-06T13:04:25;4.68;;;1.88;;
41572;SDS011;27286;47.870;19.006;2022-07-06T13:06:52;1.75;;;1.38;;
41572;SDS011;27286;47.870;19.006;2022-07-06T13:09:17;2.30;;;1.33;;
41572;SDS011;27286;47.870;19.006;2022-07-06T13:11:44;1.90;;;1.40;;
41572;SDS011;27286;47.870;19.006;2022-07-06T13:14:11;2.67;;;1.90;;
41572;SDS011;27286;47.870;19.006;2022-07-06T13:16:36;2.78;;;2.00;;
41572;SDS011;27286;47.870;19.006;2022-07-06T13:19:02;2.78;;;2.03;;
41572;SDS011;27286;47.870;19.006;2022-07-06T13:21:28;2.63;;;2.03;;
41572;SDS011;27286;47.870;19.006;2022-07-06T13:23:54;2.17;;;1.25;;
41572;SDS011;27286;47.870;19.006;2022-07-06T13:26:19;2.78;;;2.08;;
41572;SDS011;27286;47.870;19.006;2022-07-06T13:28:45;2.50;;;1.90;;
41572;SDS011;27286;47.870;19.006;2022-07-06T13:31:10;4.40;;;2.13;;
41572;SDS011;27286;47.870;19.006;2022-07-06T13:33:36;2.88;;;2.10;;
41572;SDS011;27286;47.870;19.006;2022-07-06T13:36:02;1.67;;;1.48;;
41572;SDS011;27286;47.870;19.006;2022-07-06T13:38:27;2.70;;;1.65;;
41572;SDS011;27286;47.870;19.006;2022-07-06T13:40:53;2.58;;;2.03;;
41572;SDS011;27286;47.870;19.006;2022-07-06T13:43:18;2.42;;;1.80;;
41572;SDS011;27286;47.870;19.006;2022-07-06T13:45:45;1.70;;;1.15;;
41572;SDS011;27286;47.870;19.006;2022-07-06T13:48:11;1.40;;;1.20;;
41572;SDS011;27286;47.870;19.006;2022-07-06T13:50:37;2.40;;;1.10;;
41572;SDS011;27286;47.870;19.006;2022-07-06T13:53:02;1.83;;;1.42;;
41572;SDS011;27286;47.870;19.006;2022-07-06T13:55:29;6.97;;;1.17;;
41572;SDS011;27286;47.870;19.006;2022-07-06T13:57:55;1.50;;;1.30;;
41572;SDS011;27286;47.870;19.006;2022-07-06T14:00:20;1.42;;;1.33;;
41572;SDS011;27286;47.870;19.006;2022-07-06T14:02:46;1.50;;;1.20;;
41572;SDS011;27286;47.870;19.006;2022-07-06T14:05:11;1.92;;;1.55;;
41572;SDS011;27286;47.870;19.006;2022-07-06T14:07:37;1.02;;;0.80;;
41572;SDS011;27286;47.870;19.006;2022-07-06T14:10:02;1.85;;;0.65;;
41572;SDS011;27286;47.870;19.006;2022-07-06T14:12:28;1.08;;;0.98;;
41572;SDS011;27286;47.870;19.006;2022-07-06T14:14:53;1.67;;;1.13;;
41572;SDS011;27286;47.870;19.006;2022-07-06T14:17:19;1.38;;;1.05;;
41572;SDS011;27286;47.870;19.006;2022-07-06T14:19:44;2.05;;;1.08;;
41572;SDS011;27286;47.870;19.006;2022-07-06T14:22:10;1.00;;;0.75;;
41572;SDS011;27286;47.870;19.006;2022-07-06T14:24:35;1.17;;;1.05;;
41572;SDS011;27286;47.870;19.006;2022-07-06T14:27:01;1.73;;;0.80;;
41572;SDS011;27286;47.870;19.006;2022-07-06T14:29:26;0.77;;;0.52;;
41572;SDS011;27286;47.870;19.006;2022-07-06T14:31:52;1.45;;;0.85;;
41572;SDS011;27286;47.870;19.006;2022-07-06T14:34:17;1.23;;;0.70;;
41572;SDS011;27286;47.870;19.006;2022-07-06T14:36:43;0.82;;;0.77;;
41572;SDS011;27286;47.870;19.006;2022-07-06T14:39:08;1.25;;;1.13;;
41572;SDS011;27286;47.870;19.006;2022-07-06T14:41:34;0.82;;;0.52;;
41572;SDS011;27286;47.870;19.006;2022-07-06T14:44:00;0.85;;;0.80;;
41572;SDS011;27286;47.870;19.006;2022-07-06T14:46:26;1.77;;;0.73;;
41572;SDS011;27286;47.870;19.006;2022-07-06T14:48:51;0.90;;;0.70;;